Startpagina
METAR-TAF:

METAR-TAF

Vliegvelden :

Aeroporto Internacional Hercílio Luz

Florianópolis, Santa Catarina, Brazilië

breedte: 27-40S, lengte: 048-33W, hoogte: 5 m

Actueel weer

Dit bericht is 53 minuten geleden gemaakt, om 21:00 UTC
Wind 3 kt uit het zuidoosten
Temperatuur 15°C
Vochtigheid 88%
Druk 1028 hPa
Zicht 10 km of meer
Gebroken wolken op 2000 ft

METAR: SBFL 172100Z 14003KT 9999 BKN020 15/13 Q1028

Tijdstip: 18:53 (21:53 UTC)

Verwachting

Dit bericht is 6 uur en het 53 minuten geleden gemaakt, om 15:00 UTC
Verwachting geldig van 17 om 18 UTC tot 18 om 18 UTC
Wind 5 kt uit het zuidzuidwesten
Zicht 10 km of meer
Verspreide wolken op 2000 ft
Gebroken wolken op 3000 ft
Kans 40%
van 18 om 08 UTC tot 18 om 10 UTC
Gebroken wolken op 1200 ft
Gebroken wolken op 2000 ft
Wijzigt naar
van 18 om 10 UTC tot 18 om 12 UTC
Wind 5 kt uit het noorden
Verspreide wolken op 3500 ft

TAF: SBFL 171500Z 1718/1818 20005KT 9999 SCT020 BKN030 TN14/1808Z TX22 /1818Z PROB40 1808/1810 BKN012 BKN020 BECMG 1810/1812 01005KT SCT035 RMK PD J

Waarnemingen en weersverwachtingen van meer dan 4000 vliegvelden (METAR en TAF).

De beschikbare stations zijn de gele en rode punten op de kaart.

Ga met uw muis naar het station om de naam te zien.

Klik dan om waarnemingen en weersverwachtingen te zien.

kaart wijzigen: klik op de groene knoppen met een zwart kruis om in te zoomen, op de groene knop met een streepje om uit te zoomen of op de groene pijlen voor aangrenzende kaarten.


METAR-TAF: